Time;durP1;ratioP1;P1;durP2;ratioP2;P2;SDS_P1;SDS_P2;PMS_P1;PMS_P2;Temp;Humidity;BMP_temperature;BMP_pressure;BME280_temperature;BME280_humidity;BME280_pressure;Samples;Min_cycle;Max_cycle;Signal;HPM_P1;HPM_P2
2021/01/06 00:01:05;;;;;;;22.85;10.70;;;;;;;2.74;70.51;100652.98;1855814;76;21143;-67
2021/01/06 00:03:33;;;;;;;20.30;10.82;;;;;;;2.72;70.54;100651.77;1859002;76;21089;-67
2021/01/06 00:06:05;;;;;;;20.15;11.93;;;;;;;2.81;70.47;100650.52;1859550;75;21168;-65
2021/01/06 00:08:32;;;;;;;18.05;10.68;;;;;;;2.90;70.39;100647.50;1849765;76;21144;-63
2021/01/06 00:10:59;;;;;;;22.05;12.55;;;;;;;2.98;70.32;100652.38;1852972;76;22771;-65
2021/01/06 00:13:27;;;;;;;22.07;12.65;;;;;;;3.04;70.14;100645.59;1854366;76;21165;-64
2021/01/06 00:15:57;;;;;;;21.25;12.90;;;;;;;3.04;70.16;100651.25;1863088;75;21145;-67
2021/01/06 00:18:25;;;;;;;25.82;13.35;;;;;;;3.01;70.18;100655.28;1860764;76;21108;-65
2021/01/06 00:20:54;;;;;;;22.22;13.25;;;;;;;3.00;70.20;100649.25;1860456;74;21081;-67
2021/01/06 00:23:22;;;;;;;21.57;12.82;;;;;;;2.97;70.23;100647.61;1859710;75;21355;-67
2021/01/06 00:25:51;;;;;;;20.97;11.38;;;;;;;2.93;70.31;100645.24;1867185;75;21543;-69
2021/01/06 00:28:19;;;;;;;18.60;12.43;;;;;;;2.87;70.30;100642.44;1867235;76;21191;-66
2021/01/06 00:30:51;;;;;;;19.17;12.20;;;;;;;2.86;70.33;100643.37;1867007;76;21191;-68
2021/01/06 00:33:27;;;;;;;20.88;11.18;;;;;;;2.97;70.13;100634.62;1866446;76;21115;-67
2021/01/06 00:35:58;;;;;;;17.75;11.48;;;;;;;3.06;70.05;100638.59;1862797;76;21328;-67
2021/01/06 00:38:27;;;;;;;20.90;12.68;;;;;;;3.11;70.01;100631.42;1864931;76;21175;-67
2021/01/06 00:40:54;;;;;;;25.92;12.68;;;;;;;3.12;70.07;100627.06;1858532;76;21140;-67
2021/01/06 00:43:22;;;;;;;18.25;12.07;;;;;;;3.12;70.03;100621.86;1860428;76;21136;-68
2021/01/06 00:45:50;;;;;;;20.77;11.55;;;;;;;3.10;70.09;100628.42;1867322;75;21359;-66
2021/01/06 00:48:17;;;;;;;20.88;13.25;;;;;;;3.10;70.09;100628.42;1861882;75;21356;-67
2021/01/06 00:50:45;;;;;;;20.40;13.18;;;;;;;3.06;70.08;100623.42;1864081;75;21174;-67
2021/01/06 00:53:24;;;;;;;23.98;12.90;;;;;;;3.01;70.11;100627.55;1863225;76;21087;-68
2021/01/06 00:55:54;;;;;;;22.60;14.13;;;;;;;2.94;70.19;100623.52;1862968;75;21148;-67
2021/01/06 00:58:23;;;;;;;22.10;12.65;;;;;;;2.97;70.20;100619.48;1859653;75;21152;-68
2021/01/06 01:00:54;;;;;;;21.07;11.20;;;;;;;3.09;69.92;100623.30;1863431;75;21421;-68
2021/01/06 01:03:24;;;;;;;19.45;11.48;;;;;;;3.15;69.77;100622.56;1868036;76;21381;-68
2021/01/06 01:05:53;;;;;;;22.93;11.78;;;;;;;3.16;69.68;100622.09;1866277;75;21163;-68
2021/01/06 01:08:20;;;;;;;27.27;14.03;;;;;;;3.12;69.82;100620.09;1866564;75;21171;-67
2021/01/06 01:10:52;;;;;;;24.35;14.60;;;;;;;3.10;69.91;100615.42;1864309;75;21690;-65
2021/01/06 01:13:22;;;;;;;20.52;11.70;;;;;;;3.09;69.97;100617.66;1862992;76;21388;-68
2021/01/06 01:15:54;;;;;;;25.95;14.00;;;;;;;3.05;69.99;100612.19;1864408;76;21532;-66
2021/01/06 01:18:24;;;;;;;28.60;14.43;;;;;;;3.02;70.04;100617.52;1858173;76;21560;-67
2021/01/06 01:20:56;;;;;;;20.88;13.55;;;;;;;2.96;70.03;100623.85;1863217;76;21489;-66
2021/01/06 01:23:26;;;;;;;23.87;13.75;;;;;;;2.91;70.27;100618.48;1864335;75;21156;-67
2021/01/06 01:25:54;;;;;;;26.17;13.15;;;;;;;2.94;70.21;100620.92;1862335;76;22358;-67
2021/01/06 01:28:23;;;;;;;21.75;12.03;;;;;;;3.01;70.08;100613.69;1860024;76;21195;-67
2021/01/06 01:30:53;;;;;;;21.05;11.90;;;;;;;3.08;69.96;100614.66;1861765;76;21124;-67
2021/01/06 01:33:24;;;;;;;19.35;12.05;;;;;;;3.14;69.89;100603.98;1862692;75;21200;-69
2021/01/06 01:35:53;;;;;;;23.98;13.03;;;;;;;3.17;69.90;100605.59;1859950;76;21631;-68
2021/01/06 01:38:25;;;;;;;24.10;13.30;;;;;;;3.17;69.90;100601.69;1861538;76;21357;-68
2021/01/06 01:41:06;;;;;;;25.45;14.13;;;;;;;3.20;69.84;100601.55;1867101;76;21139;-68
2021/01/06 01:43:34;;;;;;;28.47;14.73;;;;;;;3.20;69.87;100600.72;1854056;76;21148;-68
2021/01/06 01:46:07;;;;;;;24.70;14.63;;;;;;;3.16;69.86;100595.66;1864562;76;21188;-68
2021/01/06 01:48:43;;;;;;;21.77;12.85;;;;;;;3.14;69.93;100596.19;1865920;76;21108;-67
2021/01/06 01:51:39;;;;;;;24.07;14.20;;;;;;;3.12;69.91;100588.05;1833804;76;21353;-66
2021/01/06 01:54:10;;;;;;;25.43;14.55;;;;;;;3.08;69.97;100580.86;1856729;76;22266;-66
2021/01/06 01:57:02;;;;;;;31.42;14.85;;;;;;;3.14;69.80;100583.19;1835790;76;21148;-67
2021/01/06 01:59:56;;;;;;;23.57;13.48;;;;;;;3.22;69.60;100579.37;1863658;76;21135;-67
2021/01/06 02:02:44;;;;;;;27.60;13.48;;;;;;;3.28;69.49;100581.71;1864466;76;21172;-67
2021/01/06 02:05:32;;;;;;;23.85;14.40;;;;;;;3.33;69.48;100587.53;1844714;76;21244;-67
2021/01/06 02:08:11;;;;;;;27.65;14.75;;;;;;;3.32;69.45;100582.77;1823235;76;21607;-67
2021/01/06 02:10:46;;;;;;;30.25;16.67;;;;;;;3.32;69.49;100588.44;1856020;76;21551;-66
2021/01/06 02:13:27;;;;;;;25.43;16.50;;;;;;;3.27;69.41;100595.62;1865700;76;21100;-66
2021/01/06 02:16:09;;;;;;;27.73;16.40;;;;;;;3.22;69.50;100589.31;1862759;76;21108;-66
2021/01/06 02:18:39;;;;;;;26.12;15.60;;;;;;;3.17;69.48;100583.48;1796677;76;21369;-66
2021/01/06 02:21:18;;;;;;;28.87;16.50;;;;;;;3.10;69.51;100585.52;1855659;76;21987;-64
2021/01/06 02:23:49;;;;;;;31.87;17.48;;;;;;;3.05;69.66;100585.36;1858549;75;21164;-66
2021/01/06 02:26:21;;;;;;;25.85;15.95;;;;;;;3.03;69.62;100581.52;1854887;76;21165;-66
2021/01/06 02:28:48;;;;;;;24.45;14.53;;;;;;;3.08;69.50;100583.45;1855521;75;21180;-65
2021/01/06 02:31:17;;;;;;;22.87;15.15;;;;;;;3.13;69.56;100576.29;1856321;76;21343;-66
2021/01/06 02:33:46;;;;;;;29.05;15.68;;;;;;;3.15;69.50;100571.85;1855186;76;21188;-65
2021/01/06 02:36:13;;;;;;;29.37;16.12;;;;;;;3.11;69.63;100565.13;1859157;76;21101;-64
2021/01/06 02:38:41;;;;;;;38.20;18.65;;;;;;;3.11;69.74;100572.92;1858840;76;21148;-66
2021/01/06 02:41:11;;;;;;;35.55;19.37;;;;;;;3.11;69.73;100572.05;1857113;75;21673;-65
2021/01/06 02:43:38;;;;;;;27.50;16.77;;;;;;;3.07;69.72;100568.76;1850512;76;22237;-64
2021/01/06 02:46:06;;;;;;;27.05;16.45;;;;;;;3.03;69.77;100576.80;1859095;76;21169;-65
2021/01/06 02:48:33;;;;;;;33.45;19.07;;;;;;;2.97;69.86;100581.33;1855220;76;21145;-65
2021/01/06 02:51:04;;;;;;;38.13;19.57;;;;;;;2.92;69.99;100582.45;1820926;76;21168;-66
2021/01/06 02:53:36;;;;;;;27.65;16.80;;;;;;;2.90;70.04;100580.39;1827965;76;21081;-65
2021/01/06 02:56:04;;;;;;;27.50;16.57;;;;;;;2.96;70.00;100571.03;1852125;76;22111;-66
2021/01/06 02:58:31;;;;;;;34.15;15.35;;;;;;;3.09;69.89;100577.36;1855310;76;21172;-66
2021/01/06 03:00:59;;;;;;;25.00;15.65;;;;;;;3.19;69.72;100579.05;1852059;76;21568;-64
2021/01/06 03:03:31;;;;;;;34.27;16.15;;;;;;;3.26;69.54;100570.08;1820956;76;21179;-65
2021/01/06 03:06:12;;;;;;;26.68;16.65;;;;;;;3.29;69.50;100567.77;1857956;76;21117;-66
2021/01/06 03:08:41;;;;;;;33.80;17.90;;;;;;;3.31;69.49;100572.44;1855603;76;21193;-66
2021/01/06 03:11:08;;;;;;;26.90;15.58;;;;;;;3.31;69.49;100582.84;1858739;76;21862;-66
2021/01/06 03:13:36;;;;;;;29.57;16.27;;;;;;;3.28;69.37;100576.51;1858776;76;21089;-65
2021/01/06 03:16:04;;;;;;;36.48;16.95;;;;;;;3.24;69.50;100574.95;1853445;76;21148;-66
2021/01/06 03:18:32;;;;;;;25.90;15.30;;;;;;;3.21;69.44;100578.98;1858685;76;21116;-66
2021/01/06 03:21:02;;;;;;;33.28;17.00;;;;;;;3.18;69.47;100579.98;1856689;76;21182;-65
2021/01/06 03:23:40;;;;;;;29.42;16.80;;;;;;;3.14;69.59;100581.89;1857067;75;21104;-66
2021/01/06 03:26:12;;;;;;;30.95;16.25;;;;;;;3.18;69.46;100577.38;1855725;76;21610;-65
2021/01/06 03:28:39;;;;;;;28.17;14.75;;;;;;;3.26;69.28;100576.58;1852329;76;21096;-66
2021/01/06 03:31:11;;;;;;;24.30;14.10;;;;;;;3.31;69.21;100579.80;1823815;76;21332;-66
2021/01/06 03:33:58;;;;;;;23.42;13.98;;;;;;;3.34;69.11;100577.50;1856389;75;21478;-66
2021/01/06 03:36:30;;;;;;;29.32;16.82;;;;;;;3.32;69.20;100565.03;1825556;76;21133;-65
2021/01/06 03:39:06;;;;;;;27.82;15.35;;;;;;;3.32;69.17;100563.73;1828260;76;21160;-67
2021/01/06 03:41:33;;;;;;;25.68;14.73;;;;;;;3.30;69.22;100572.07;1855005;76;21563;-66
2021/01/06 03:44:06;;;;;;;28.65;14.65;;;;;;;3.29;69.28;100570.38;1828110;76;21567;-66
2021/01/06 03:47:09;;;;;;;29.32;16.05;;;;;;;3.26;69.23;100572.67;1827600;76;22306;-66
2021/01/06 03:50:04;;;;;;;26.15;15.63;;;;;;;3.20;69.32;100567.75;1864160;75;21156;-66
2021/01/06 03:52:58;;;;;;;30.02;16.25;;;;;;;3.12;69.53;100577.19;1852907;76;21112;-66
2021/01/06 03:55:55;;;;;;;22.95;14.55;;;;;;;3.09;69.63;100579.09;1849072;76;21132;-66
2021/01/06 03:58:54;;;;;;;35.92;17.65;;;;;;;3.12;69.63;100565.48;1823816;76;21139;-65
2021/01/06 04:01:36;;;;;;;27.55;15.53;;;;;;;3.25;69.43;100553.23;1860150;76;21336;-62
2021/01/06 04:04:25;;;;;;;25.95;15.05;;;;;;;3.34;69.16;100555.39;1811056;76;21587;-66
2021/01/06 04:06:53;;;;;;;25.05;14.90;;;;;;;3.35;69.06;100550.59;1851577;76;21152;-66
2021/01/06 04:09:38;;;;;;;26.95;15.48;;;;;;;3.27;69.24;100556.60;1856641;76;21381;-65
2021/01/06 04:12:12;;;;;;;26.87;16.20;;;;;;;3.24;69.41;100560.64;1852192;76;21187;-66
2021/01/06 04:14:40;;;;;;;28.02;16.90;;;;;;;3.21;69.50;100563.38;1856839;76;21358;-66
2021/01/06 04:17:29;;;;;;;29.23;16.82;;;;;;;3.14;69.69;100567.59;1855431;76;21799;-65
2021/01/06 04:20:16;;;;;;;29.65;16.55;;;;;;;3.11;69.76;100566.86;1868581;75;21156;-65
2021/01/06 04:22:50;;;;;;;29.45;18.20;;;;;;;3.04;69.86;100569.36;1859583;75;21136;-65
2021/01/06 04:25:35;;;;;;;24.67;15.90;;;;;;;3.00;70.00;100568.66;1862523;75;21635;-64
2021/01/06 04:28:15;;;;;;;26.33;16.65;;;;;;;3.05;70.03;100574.49;1859181;76;21506;-64
2021/01/06 04:31:02;;;;;;;32.88;17.17;;;;;;;3.15;69.82;100578.35;1866673;76;21166;-64
2021/01/06 04:33:38;;;;;;;;;;;;;;;3.22;69.75;100581.52;1870215;76;21183;-65
2021/01/06 04:36:13;;;;;;;33.15;16.02;;;;;;;3.29;69.75;100585.98;1863306;76;20225;-65
2021/01/06 04:38:44;;;;;;;29.30;17.55;;;;;;;3.24;69.94;100587.95;1859861;75;21167;-64
2021/01/06 04:41:35;;;;;;;37.98;17.42;;;;;;;3.24;70.04;100590.55;1864974;76;21171;-65
2021/01/06 04:44:46;;;;;;;29.90;17.07;;;;;;;3.25;69.98;100588.34;1862271;76;21171;-64
2021/01/06 04:47:41;;;;;;;31.25;16.25;;;;;;;3.16;69.99;100591.75;1860293;76;21823;-65
2021/01/06 04:50:27;;;;;;;31.62;18.20;;;;;;;3.11;70.14;100591.12;1857884;75;21175;-63
2021/01/06 04:53:11;;;;;;;26.65;17.20;;;;;;;3.08;70.31;100596.92;1865677;76;21092;-64
2021/01/06 04:56:14;;;;;;;32.45;16.87;;;;;;;3.03;70.39;100598.42;1852643;76;21364;-64
2021/01/06 04:58:52;;;;;;;30.08;17.85;;;;;;;3.07;70.34;100597.36;1860997;76;21195;-64
2021/01/06 05:01:49;;;;;;;29.95;17.35;;;;;;;3.19;70.11;100595.95;1865453;75;21623;-66
2021/01/06 05:04:28;;;;;;;39.00;17.62;;;;;;;3.25;70.02;100592.25;1859986;75;21478;-63
2021/01/06 05:07:01;;;;;;;29.25;15.88;;;;;;;3.30;70.00;100591.11;1820692;76;21175;-66
2021/01/06 05:09:55;;;;;;;30.60;16.67;;;;;;;3.32;70.00;100587.14;1846452;76;21155;-61
2021/01/06 05:26:02;;;;;;;31.68;18.25;;;;;;;4.80;66.85;100592.87;1756570;79;22807;-61
2021/01/06 05:28:30;;;;;;;32.65;17.23;;;;;;;4.94;66.22;100596.04;1734509;82;21580;-61
2021/01/06 05:30:58;;;;;;;31.42;17.57;;;;;;;4.87;66.17;100594.22;1731611;82;21197;-61
2021/01/06 05:33:33;;;;;;;33.92;18.48;;;;;;;4.78;66.17;100596.02;1733204;82;21924;-60
2021/01/06 05:36:01;;;;;;;29.57;17.20;;;;;;;4.70;66.16;100600.79;1740675;82;21244;-61
2021/01/06 05:38:29;;;;;;;26.35;16.55;;;;;;;4.56;66.22;100602.34;1735865;82;21658;-60
2021/01/06 05:40:56;;;;;;;27.60;16.50;;;;;;;4.31;66.60;100604.52;1733037;82;21120;-60
2021/01/06 05:43:40;;;;;;;32.98;17.50;;;;;;;4.31;66.60;100604.52;1732161;82;21365;-60
2021/01/06 05:46:30;;;;;;;31.55;17.35;;;;;;;4.16;66.79;100608.27;1735618;82;21176;-61
2021/01/06 05:49:04;;;;;;;41.50;16.02;;;;;;;4.00;67.12;100609.49;1729930;82;21187;-66
2021/01/06 05:51:35;;;;;;;29.00;17.52;;;;;;;3.84;67.60;100609.84;1696607;82;21184;-62
2021/01/06 05:54:18;;;;;;;26.95;15.58;;;;;;;3.83;67.77;100611.62;1714095;82;21161;-60
2021/01/06 05:57:25;;;;;;;31.75;14.87;;;;;;;3.87;67.73;100622.25;1696509;82;21227;-60
2021/01/06 06:00:25;;;;;;;28.45;15.53;;;;;;;3.88;67.83;100618.75;1736558;82;27100;-64
2021/01/06 06:03:20;;;;;;;27.67;15.75;;;;;;;3.86;67.90;100614.05;1681810;83;21164;-60
2021/01/06 06:06:45;;;;;;;31.73;19.15;;;;;;;3.80;68.17;100613.06;1730369;82;21790;-58
2021/01/06 06:09:54;;;;;;;30.27;15.83;;;;;;;3.80;68.56;100621.31;1734919;82;21206;-61
2021/01/06 06:12:47;;;;;;;;;;;;;;;3.70;68.64;100628.27;1741898;82;21271;-64
2021/01/06 06:15:26;;;;;;;29.52;16.37;;;;;;;3.61;68.79;100623.95;1732963;82;20307;-64
2021/01/06 06:18:26;;;;;;;31.10;16.07;;;;;;;3.48;69.17;100618.03;1731890;82;21543;-62
2021/01/06 06:21:02;;;;;;;29.40;16.80;;;;;;;3.45;69.33;100625.98;1618014;86;21288;-62
2021/01/06 06:24:19;;;;;;;29.98;16.65;;;;;;;3.42;69.46;100631.31;1867893;74;23502;-66
2021/01/06 06:27:24;;;;;;;34.03;17.85;;;;;;;3.45;69.48;100629.05;1831729;77;21673;-64
2021/01/06 06:30:12;;;;;;;28.95;15.53;;;;;;;3.58;69.41;100625.39;1838505;75;23196;-64
2021/01/06 06:32:43;;;;;;;30.45;16.55;;;;;;;3.65;69.39;100624.21;1826573;75;21182;-63
2021/01/06 06:35:35;;;;;;;27.98;16.30;;;;;;;3.70;69.37;100627.44;1835649;77;21168;-63
2021/01/06 06:38:06;;;;;;;33.25;17.02;;;;;;;3.74;69.38;100632.03;1842349;75;21192;-65
2021/01/06 06:40:48;;;;;;;36.45;17.05;;;;;;;3.73;69.31;100628.56;1836295;75;21974;-64
2021/01/06 06:43:44;;;;;;;30.57;16.25;;;;;;;3.73;69.42;100633.77;1753421;79;22738;-64
2021/01/06 06:46:46;;;;;;;26.27;16.23;;;;;;;3.71;69.39;100633.01;1732978;82;21239;-63
2021/01/06 06:49:39;;;;;;;31.45;16.23;;;;;;;3.73;69.31;100636.38;1720026;82;21491;-63
2021/01/06 06:52:38;;;;;;;27.95;15.88;;;;;;;3.68;69.38;100638.35;1708464;82;21934;-64
2021/01/06 06:55:33;;;;;;;32.75;17.82;;;;;;;3.64;69.47;100635.52;1735106;82;21659;-70
2021/01/06 06:58:41;;;;;;;27.30;15.32;;;;;;;3.65;69.37;100635.45;1647737;85;21725;-66
2021/01/06 07:01:13;;;;;;;34.18;18.40;;;;;;;3.72;69.28;100639.91;1726715;82;21628;-65
2021/01/06 07:04:02;;;;;;;28.47;15.48;;;;;;;3.77;69.25;100643.14;1729422;82;21206;-64
2021/01/06 07:06:31;;;;;;;37.05;17.15;;;;;;;3.80;69.23;100645.59;1727405;81;21212;-69
2021/01/06 07:09:00;;;;;;;28.20;17.30;;;;;;;3.79;69.31;100640.00;1728149;80;21204;-65
2021/01/06 07:11:35;;;;;;;27.42;16.02;;;;;;;3.79;69.38;100637.39;1725035;82;21207;-65
2021/01/06 07:14:07;;;;;;;35.38;18.90;;;;;;;3.81;69.37;100643.83;1726294;82;21160;-64
2021/01/06 07:16:53;;;;;;;31.12;17.67;;;;;;;3.81;69.48;100635.55;1724877;80;21746;-63
2021/01/06 07:19:36;;;;;;;32.63;16.70;;;;;;;3.80;69.52;100636.48;1717143;80;21172;-60
2021/01/06 07:22:41;;;;;;;33.63;16.60;;;;;;;3.76;69.51;100626.29;1725713;82;21609;-60
2021/01/06 07:25:33;;;;;;;31.73;15.15;;;;;;;3.71;69.62;100634.31;1725741;82;21698;-64
2021/01/06 07:28:02;;;;;;;27.55;15.90;;;;;;;3.75;69.57;100629.36;1723885;80;21131;-59
2021/01/06 07:30:44;;;;;;;29.92;14.68;;;;;;;3.85;69.47;100633.20;1728244;82;21392;-62
2021/01/06 07:33:35;;;;;;;29.98;15.63;;;;;;;3.93;69.39;100633.28;1726685;82;21210;-61
2021/01/06 07:36:18;;;;;;;39.75;16.50;;;;;;;3.98;69.38;100639.95;1727563;80;21654;-62
2021/01/06 07:38:47;;;;;;;27.95;16.67;;;;;;;3.98;69.34;100637.34;1733257;80;21247;-63
2021/01/06 07:41:16;;;;;;;32.33;17.57;;;;;;;3.97;69.36;100636.98;1735496;80;21199;-63
2021/01/06 07:44:05;;;;;;;27.98;15.40;;;;;;;3.96;69.42;100635.28;1719608;82;21210;-64
2021/01/06 07:46:47;;;;;;;29.42;16.57;;;;;;;3.94;69.46;100637.13;1711445;82;21568;-62
2021/01/06 07:49:40;;;;;;;26.55;16.32;;;;;;;3.91;69.56;100634.66;1692882;82;21141;-63
2021/01/06 07:52:46;;;;;;;25.92;15.00;;;;;;;3.88;69.60;100641.31;1708913;82;21128;-61
2021/01/06 07:55:39;;;;;;;29.50;16.82;;;;;;;3.82;69.69;100650.27;1712802;81;21216;-61
2021/01/06 07:58:29;;;;;;;25.75;14.58;;;;;;;3.86;69.65;100654.39;1712993;81;22819;-61
2021/01/06 08:01:31;;;;;;;25.35;14.73;;;;;;;3.96;69.50;100655.27;1709245;82;21223;-61
2021/01/06 08:03:56;;;;;;;27.65;14.85;;;;;;;4.02;69.42;100656.29;1712191;82;21651;-61
2021/01/06 08:06:41;;;;;;;29.90;14.25;;;;;;;4.06;69.46;100661.25;1707429;82;21190;-60
2021/01/06 08:09:08;;;;;;;28.30;15.45;;;;;;;4.06;69.45;100662.55;1713483;82;21228;-63
2021/01/06 08:11:46;;;;;;;24.52;15.10;;;;;;;4.04;69.50;100662.27;1712463;82;21391;-63
2021/01/06 08:14:28;;;;;;;31.02;14.90;;;;;;;4.04;69.48;100663.56;1710381;81;21271;-63
2021/01/06 08:16:58;;;;;;;26.70;14.90;;;;;;;4.02;69.61;100661.50;1710700;82;21490;-64
2021/01/06 08:19:30;;;;;;;32.67;14.45;;;;;;;4.01;69.64;100665.01;1714856;82;21200;-63
2021/01/06 08:22:27;;;;;;;26.42;14.35;;;;;;;3.97;69.71;100661.71;1693669;82;21200;-65
2021/01/06 08:25:12;;;;;;;23.90;13.50;;;;;;;3.96;69.72;100665.69;1714309;82;21246;-63
2021/01/06 08:27:39;;;;;;;28.35;14.75;;;;;;;3.99;69.70;100666.84;1717159;82;21185;-64
2021/01/06 08:33:13;;;;;;;22.17;12.50;;;;;;;4.18;69.51;100667.63;1718768;82;21213;-62
2021/01/06 08:35:43;;;;;;;21.17;12.90;;;;;;;4.24;69.42;100669.11;1712272;81;21204;-64
2021/01/06 08:38:30;;;;;;;24.92;15.08;;;;;;;4.26;69.46;100671.17;1709432;81;22291;-62
2021/01/06 08:41:19;;;;;;;25.15;14.20;;;;;;;4.30;69.38;100671.86;1687381;82;21204;-62
2021/01/06 08:43:47;;;;;;;22.82;13.55;;;;;;;4.30;69.40;100667.95;1733960;80;21196;-62
2021/01/06 08:46:32;;;;;;;20.90;12.93;;;;;;;4.27;69.45;100664.59;1725013;82;21625;-64
2021/01/06 08:49:19;;;;;;;24.32;13.22;;;;;;;4.27;69.49;100669.80;1721493;82;21212;-67
2021/01/06 08:51:48;;;;;;;26.48;13.60;;;;;;;4.24;69.58;100662.12;1724053;82;22757;-64
2021/01/06 08:54:32;;;;;;;23.60;12.40;;;;;;;4.18;69.62;100661.11;1725202;82;21608;-67
2021/01/06 08:57:20;;;;;;;27.15;13.50;;;;;;;4.21;69.52;100668.78;1726241;82;21180;-66
2021/01/06 08:59:48;;;;;;;23.92;12.55;;;;;;;4.33;69.50;100669.11;1727246;80;21200;-67
2021/01/06 09:02:34;;;;;;;20.08;11.93;;;;;;;4.40;69.47;100661.36;1727364;82;21654;-65
2021/01/06 09:05:02;;;;;;;21.37;12.63;;;;;;;4.43;69.32;100667.26;1731077;82;21379;-67
2021/01/06 09:07:33;;;;;;;25.45;13.38;;;;;;;4.43;69.46;100671.17;1721016;82;21236;-67
2021/01/06 09:10:06;;;;;;;29.80;14.20;;;;;;;4.43;69.50;100666.42;1718047;82;21191;-66
2021/01/06 09:13:01;;;;;;;22.45;12.63;;;;;;;4.43;69.53;100666.42;1721230;82;21192;-66
2021/01/06 09:16:21;;;;;;;21.52;10.88;;;;;;;4.40;69.65;100664.80;1725086;82;21191;-67
2021/01/06 09:19:04;;;;;;;23.90;12.55;;;;;;;4.36;69.76;100666.36;1724962;82;21202;-66
2021/01/06 09:21:32;;;;;;;18.48;10.58;;;;;;;4.29;69.89;100671.02;1697239;82;21674;-67
2021/01/06 09:24:32;;;;;;;21.75;12.23;;;;;;;4.26;69.98;100673.31;1693690;82;21800;-65
2021/01/06 09:27:08;;;;;;;23.32;12.03;;;;;;;4.28;69.95;100661.52;1720723;82;21130;-70
2021/01/06 09:29:37;;;;;;;22.20;11.75;;;;;;;4.38;69.72;100665.34;1722856;82;21144;-69
2021/01/06 09:32:13;;;;;;;21.15;12.15;;;;;;;4.44;69.66;100662.44;1724606;82;21382;-68
2021/01/06 09:34:46;;;;;;;21.97;12.05;;;;;;;4.50;69.67;100665.19;1722254;82;21691;-69
2021/01/06 09:37:27;;;;;;;26.35;12.20;;;;;;;4.51;69.70;100660.37;1731973;80;21112;-68
2021/01/06 09:39:59;;;;;;;27.55;13.35;;;;;;;4.53;69.70;100665.52;1725543;80;21172;-68
2021/01/06 09:42:26;;;;;;;23.47;12.70;;;;;;;4.54;69.69;100664.13;1730910;82;21157;-69
2021/01/06 09:44:54;;;;;;;24.80;13.93;;;;;;;4.55;69.61;100662.36;1715918;82;21584;-65
2021/01/06 09:47:37;;;;;;;22.70;12.53;;;;;;;4.55;69.64;100653.23;1715726;82;21153;-72
2021/01/06 09:50:20;;;;;;;25.35;13.85;;;;;;;4.55;69.59;100654.54;1718716;82;21181;-65
2021/01/06 09:52:50;;;;;;;24.12;12.33;;;;;;;4.52;69.63;100653.39;1712531;82;21212;-66
2021/01/06 09:55:23;;;;;;;19.85;11.25;;;;;;;4.54;69.58;100647.20;1710828;82;21205;-67
2021/01/06 09:58:05;;;;;;;22.52;12.20;;;;;;;4.65;69.30;100642.25;1712139;82;22339;-66
2021/01/06 10:00:51;;;;;;;19.95;12.13;;;;;;;4.75;69.12;100644.41;1716015;82;21197;-67
2021/01/06 10:03:18;;;;;;;20.80;12.33;;;;;;;4.80;69.15;100640.63;1716088;82;21551;-66
2021/01/06 10:05:58;;;;;;;24.82;13.28;;;;;;;4.81;69.06;100635.80;1717733;82;21450;-66
2021/01/06 10:08:49;;;;;;;21.62;12.18;;;;;;;4.79;69.02;100644.17;1712695;82;21117;-69
2021/01/06 10:11:38;;;;;;;26.70;13.10;;;;;;;4.77;69.04;100642.55;1720896;82;22897;-65
2021/01/06 10:14:14;;;;;;;24.65;13.18;;;;;;;4.73;69.05;100641.05;1717780;81;21225;-68
2021/01/06 10:16:53;;;;;;;26.55;12.03;;;;;;;4.68;69.20;100644.34;1711138;82;21215;-66
2021/01/06 10:20:02;;;;;;;22.52;12.13;;;;;;;4.63;69.29;100649.31;1679063;82;21188;-67
2021/01/06 10:22:44;;;;;;;20.97;12.60;;;;;;;4.62;69.16;100652.86;1709344;82;21190;-66
2021/01/06 10:25:33;;;;;;;22.45;11.83;;;;;;;4.69;69.04;100656.00;1714889;82;21402;-65
2021/01/06 10:28:23;;;;;;;16.30;11.15;;;;;;;4.70;68.98;100650.31;1709039;82;21228;-66
2021/01/06 10:31:10;;;;;;;29.07;13.53;;;;;;;4.69;69.03;100654.70;1715149;82;21620;-65
2021/01/06 10:34:00;;;;;;;26.20;13.93;;;;;;;4.67;69.22;100659.59;1708144;82;21168;-65
2021/01/06 10:37:06;;;;;;;22.13;13.20;;;;;;;4.63;69.00;100661.05;1688871;82;21176;-64
2021/01/06 10:39:48;;;;;;;26.33;13.33;;;;;;;4.63;69.00;100661.05;1716503;82;21226;-64
2021/01/06 10:42:27;;;;;;;22.80;12.20;;;;;;;4.60;69.31;100659.89;1682811;82;21612;-65
2021/01/06 10:45:14;;;;;;;22.55;12.43;;;;;;;4.57;69.47;100660.52;1715774;82;21549;-67
2021/01/06 10:47:50;;;;;;;29.12;14.70;;;;;;;4.51;69.61;100666.05;1717831;82;21161;-66
2021/01/06 10:50:32;;;;;;;24.50;12.93;;;;;;;4.52;69.72;100667.72;1720292;81;21560;-64
2021/01/06 10:53:21;;;;;;;29.20;13.45;;;;;;;4.62;69.65;100658.52;1720646;81;21371;-65
2021/01/06 10:56:10;;;;;;;26.37;12.20;;;;;;;4.70;69.50;100665.95;1713052;81;21192;-65
2021/01/06 10:59:04;;;;;;;22.13;12.70;;;;;;;4.75;69.45;100669.17;1715368;82;21201;-65
2021/01/06 11:02:09;;;;;;;21.70;12.35;;;;;;;4.75;69.38;100667.40;1716092;81;21217;-63
2021/01/06 11:04:52;;;;;;;23.73;13.50;;;;;;;4.73;69.45;100672.33;1718482;82;21150;-61
2021/01/06 11:08:01;;;;;;;27.77;13.93;;;;;;;4.69;69.47;100677.30;1714156;82;21423;-61
2021/01/06 11:10:53;;;;;;;25.45;12.47;;;;;;;4.67;69.63;100676.06;1692104;82;21181;-61
2021/01/06 11:13:49;;;;;;;29.20;11.48;;;;;;;4.67;69.52;100679.14;1720298;82;21682;-59
2021/01/06 11:16:28;;;;;;;22.75;11.93;;;;;;;4.59;69.35;100676.47;1710868;82;21209;-61
2021/01/06 11:18:56;;;;;;;29.25;14.95;;;;;;;4.55;69.19;100673.62;1699730;82;21644;-61
2021/01/06 11:21:40;;;;;;;23.67;13.22;;;;;;;4.59;69.21;100671.26;1716255;82;21379;-60
2021/01/06 11:24:36;;;;;;;19.42;11.80;;;;;;;4.63;69.25;100663.66;1716758;82;22058;-58
2021/01/06 11:27:11;;;;;;;21.52;12.60;;;;;;;4.66;69.12;100658.76;1714583;82;21668;-59
2021/01/06 11:29:56;;;;;;;22.17;12.37;;;;;;;4.62;69.16;100663.29;1696388;82;21213;-60
2021/01/06 11:32:29;;;;;;;22.65;12.03;;;;;;;4.60;69.29;100666.88;1695567;82;21193;-59
2021/01/06 11:35:24;;;;;;;20.60;12.58;;;;;;;4.59;69.39;100660.83;1714322;82;21371;-59
2021/01/06 11:37:53;;;;;;;20.37;12.00;;;;;;;4.60;69.41;100656.45;1711776;82;21648;-62
2021/01/06 11:40:37;;;;;;;22.75;12.93;;;;;;;4.58;69.22;100650.02;1715166;82;21699;-60
2021/01/06 11:43:40;;;;;;;23.75;13.35;;;;;;;4.58;69.35;100650.48;1722084;82;21201;-60
2021/01/06 11:46:22;;;;;;;22.58;13.32;;;;;;;4.54;69.50;100640.68;1736201;82;21207;-62
2021/01/06 11:48:50;;;;;;;24.75;13.30;;;;;;;4.61;69.57;100645.95;1686416;82;21297;-63
2021/01/06 11:51:21;;;;;;;20.65;11.33;;;;;;;4.82;69.08;100640.55;1705908;82;21203;-60
2021/01/06 11:54:14;;;;;;;23.95;13.08;;;;;;;4.82;69.08;100640.55;1719855;82;21231;-60
2021/01/06 11:56:49;;;;;;;22.02;13.30;;;;;;;4.91;69.05;100652.26;1719731;82;21128;-59
2021/01/06 11:59:39;;;;;;;23.95;12.95;;;;;;;4.91;68.97;100651.82;1697313;82;21212;-59
2021/01/06 12:02:28;;;;;;;22.40;14.10;;;;;;;4.89;69.03;100653.64;1732704;82;21265;-61
2021/01/06 12:05:18;;;;;;;28.52;14.35;;;;;;;4.83;69.12;100652.20;1734485;82;21212;-60
2021/01/06 12:07:54;;;;;;;23.15;14.28;;;;;;;4.77;69.21;100651.68;1706376;83;21232;-60
2021/01/06 12:10:45;;;;;;;24.65;14.45;;;;;;;4.72;69.29;100656.28;1724765;82;22070;-60
2021/01/06 12:13:46;;;;;;;28.15;14.15;;;;;;;4.67;69.42;100651.30;1723483;80;21206;-60
2021/01/06 12:16:34;;;;;;;28.70;14.15;;;;;;;4.65;69.50;100655.28;1652875;83;21866;-61
2021/01/06 12:19:22;;;;;;;24.45;13.68;;;;;;;4.70;69.38;100657.67;1735697;82;21191;-60
2021/01/06 12:22:07;;;;;;;20.75;13.85;;;;;;;4.80;69.15;100664.56;1738926;82;21663;-60
2021/01/06 12:24:41;;;;;;;26.65;13.28;;;;;;;4.86;69.11;100662.95;1724595;82;21211;-63
2021/01/06 12:27:48;;;;;;;28.10;13.98;;;;;;;4.90;69.11;100658.42;1724119;82;21570;-67
2021/01/06 12:30:25;;;;;;;27.22;13.98;;;;;;;4.93;69.12;100661.70;1728285;82;21474;-62
2021/01/06 12:33:13;;;;;;;27.62;14.13;;;;;;;4.92;69.12;100658.70;1667344;82;21281;-63